createdAt,value
2022-08-11T00:02:26.038Z,20.90
2022-08-11T00:04:56.361Z,20.90
2022-08-11T00:07:26.841Z,20.90
2022-08-11T00:09:56.281Z,20.90
2022-08-11T00:12:24.781Z,21.00
2022-08-11T00:14:58.147Z,20.90
2022-08-11T00:17:28.992Z,20.80
2022-08-11T00:20:12.076Z,20.80
2022-08-11T00:22:46.654Z,20.80
2022-08-11T00:25:16.623Z,20.70
2022-08-11T00:27:45.390Z,20.60
2022-08-11T00:30:14.431Z,20.70
2022-08-11T00:32:43.941Z,20.70
2022-08-11T00:35:54.281Z,20.60
2022-08-11T00:38:04.629Z,20.60
2022-08-11T00:40:38.784Z,20.60
2022-08-11T00:43:20.067Z,20.50
2022-08-11T00:45:56.480Z,20.40
2022-08-11T00:48:28.132Z,20.40
2022-08-11T00:51:03.891Z,20.40
2022-08-11T00:53:38.798Z,20.40
2022-08-11T00:56:25.182Z,20.20
2022-08-11T00:59:35.075Z,20.20
2022-08-11T01:02:19.342Z,20.20
2022-08-11T01:05:06.201Z,20.30
2022-08-11T01:08:03.541Z,20.20
2022-08-11T01:10:52.983Z,20.20
2022-08-11T01:13:37.181Z,20.30
2022-08-11T01:16:15.119Z,20.20
2022-08-11T01:19:14.361Z,20.30
2022-08-11T01:22:01.091Z,20.30
2022-08-11T01:24:47.810Z,20.20
2022-08-11T01:27:34.313Z,20.20
2022-08-11T01:30:17.470Z,20.30
2022-08-11T01:33:06.731Z,20.20
2022-08-11T01:35:50.231Z,20.20
2022-08-11T01:38:36.644Z,20.10
2022-08-11T01:41:25.476Z,20.10
2022-08-11T01:44:22.241Z,20.10
2022-08-11T01:46:53.690Z,20.20
2022-08-11T01:50:06.854Z,20.20
2022-08-11T01:52:30.295Z,20.10
2022-08-11T01:55:10.630Z,20.10
2022-08-11T01:57:54.204Z,20.10
2022-08-11T02:00:24.610Z,20.10
2022-08-11T02:02:55.619Z,20.30
2022-08-11T02:05:48.032Z,20.20
2022-08-11T02:08:33.150Z,20.10
2022-08-11T02:11:24.650Z,19.80
2022-08-11T02:13:59.239Z,19.60
2022-08-11T02:16:31.481Z,19.50
2022-08-11T02:19:23.140Z,19.40
2022-08-11T02:22:11.469Z,19.30
2022-08-11T02:24:46.383Z,19.40
2022-08-11T02:27:18.213Z,19.40
2022-08-11T02:29:50.641Z,19.30
2022-08-11T02:32:38.899Z,19.10
2022-08-11T02:35:13.732Z,19.20
2022-08-11T02:37:46.711Z,19.00
2022-08-11T02:40:25.961Z,19.10
2022-08-11T02:43:03.251Z,19.20
2022-08-11T02:45:36.122Z,19.00
2022-08-11T02:48:25.191Z,18.90
2022-08-11T02:51:05.090Z,18.60
2022-08-11T02:53:38.430Z,18.90
2022-08-11T02:56:14.235Z,18.90
2022-08-11T02:59:05.941Z,19.10
2022-08-11T03:01:40.972Z,19.10
2022-08-11T03:04:13.602Z,18.90
2022-08-11T03:06:50.030Z,18.90
2022-08-11T03:09:20.770Z,19.00
2022-08-11T03:12:17.691Z,19.40
2022-08-11T03:15:07.092Z,19.40
2022-08-11T03:17:39.772Z,19.10
2022-08-11T03:20:13.111Z,19.00
2022-08-11T03:22:51.230Z,19.00
2022-08-11T03:25:30.600Z,19.10
2022-08-11T03:28:11.740Z,19.00
2022-08-11T03:30:45.544Z,19.00
2022-08-11T03:33:37.390Z,18.80
2022-08-11T03:36:10.790Z,18.80
2022-08-11T03:38:47.083Z,18.80
2022-08-11T03:42:02.907Z,18.80
2022-08-11T03:44:31.571Z,19.10
2022-08-11T03:47:10.393Z,19.00
2022-08-11T03:49:55.300Z,19.00
2022-08-11T03:52:28.843Z,19.00
2022-08-11T03:55:03.113Z,19.00
2022-08-11T03:57:47.459Z,19.10
2022-08-11T04:00:42.734Z,19.00
2022-08-11T04:03:31.181Z,18.90
2022-08-11T04:06:19.682Z,19.10
2022-08-11T04:09:02.913Z,18.90
2022-08-11T04:11:50.800Z,18.80
2022-08-11T04:14:55.273Z,18.80
2022-08-11T04:17:40.750Z,18.70
2022-08-11T04:20:36.060Z,18.60
2022-08-11T04:24:36.798Z,18.80
2022-08-11T04:26:36.660Z,19.10
2022-08-11T04:29:35.993Z,20.00
2022-08-11T04:32:11.591Z,20.80
2022-08-11T04:34:55.971Z,21.50
2022-08-11T04:37:37.931Z,21.80
2022-08-11T04:40:30.062Z,22.20
2022-08-11T04:43:21.226Z,22.50
2022-08-11T04:46:18.225Z,22.70
2022-08-11T04:49:33.791Z,22.80
2022-08-11T04:52:37.744Z,23.10
2022-08-11T04:55:37.164Z,23.40
2022-08-11T04:58:31.902Z,23.80
2022-08-11T05:01:25.432Z,23.90
2022-08-11T05:04:31.794Z,23.60
2022-08-11T05:07:20.749Z,23.40
2022-08-11T05:10:03.180Z,22.90
2022-08-11T05:12:37.628Z,22.80
2022-08-11T05:15:25.393Z,22.40
2022-08-11T05:18:12.945Z,22.20
2022-08-11T05:21:07.154Z,21.80
2022-08-11T05:23:54.020Z,21.50
2022-08-11T05:26:46.842Z,21.50
2022-08-11T05:29:46.231Z,21.50
2022-08-11T05:32:34.687Z,21.60
2022-08-11T05:35:04.842Z,21.70
2022-08-11T05:37:36.012Z,22.20
2022-08-11T05:40:25.237Z,22.00
2022-08-11T05:43:14.842Z,21.80
2022-08-11T05:46:04.792Z,22.00
2022-08-11T05:48:52.782Z,22.00
2022-08-11T05:51:39.269Z,22.00
2022-08-11T05:54:38.375Z,21.80
2022-08-11T05:57:07.890Z,22.00
2022-08-11T05:59:38.214Z,21.90
2022-08-11T06:02:07.770Z,21.70
2022-08-11T06:04:36.531Z,21.80
2022-08-11T06:07:09.095Z,21.80
2022-08-11T06:09:39.954Z,21.80
2022-08-11T06:12:10.041Z,22.10
2022-08-11T06:14:46.282Z,22.00
2022-08-11T06:17:15.352Z,22.10
2022-08-11T06:19:44.564Z,22.40
2022-08-11T06:22:14.110Z,21.90
2022-08-11T06:24:46.451Z,22.10
2022-08-11T06:27:20.884Z,22.30
2022-08-11T06:29:54.740Z,22.60
2022-08-11T06:32:28.700Z,22.80
2022-08-11T06:35:05.202Z,22.80
2022-08-11T06:37:43.760Z,23.00
2022-08-11T06:40:14.544Z,22.90
2022-08-11T06:42:49.544Z,22.80
2022-08-11T06:45:26.263Z,23.00
2022-08-11T06:47:56.552Z,23.10
2022-08-11T06:50:42.333Z,23.20
2022-08-11T06:53:12.461Z,23.20
2022-08-11T06:56:00.580Z,23.10
2022-08-11T06:58:47.401Z,23.30
2022-08-11T07:01:22.605Z,23.20
2022-08-11T07:03:57.633Z,23.40
2022-08-11T07:06:51.094Z,23.60
2022-08-11T07:09:57.532Z,23.70
2022-08-11T07:12:57.320Z,23.80
2022-08-11T07:16:12.870Z,23.90
2022-08-11T07:18:58.070Z,23.70
2022-08-11T07:22:01.973Z,23.90
2022-08-11T07:25:02.230Z,24.00
2022-08-11T07:27:55.715Z,24.10
2022-08-11T07:30:25.991Z,24.20
2022-08-11T07:32:57.823Z,24.30
2022-08-11T07:35:29.861Z,24.50
2022-08-11T07:38:02.141Z,24.50
2022-08-11T07:40:32.383Z,24.70
2022-08-11T07:43:01.621Z,24.70
2022-08-11T07:45:59.593Z,24.60
2022-08-11T07:48:45.601Z,24.70
2022-08-11T07:51:33.029Z,24.80
2022-08-11T07:54:18.702Z,24.80
2022-08-11T07:57:07.418Z,25.00
2022-08-11T08:00:00.352Z,25.00
2022-08-11T08:02:50.664Z,25.00
2022-08-11T08:05:36.590Z,25.10
2022-08-11T08:08:24.332Z,25.40
2022-08-11T08:11:10.113Z,25.40
2022-08-11T08:13:56.022Z,25.30
2022-08-11T08:16:41.854Z,25.60
2022-08-11T08:19:13.303Z,25.50
2022-08-11T08:21:45.431Z,25.60
2022-08-11T08:24:16.231Z,25.50
2022-08-11T08:27:01.810Z,25.80
2022-08-11T08:29:50.167Z,26.00
2022-08-11T08:32:20.290Z,26.00
2022-08-11T08:34:51.392Z,25.90
2022-08-11T08:37:47.084Z,26.20
2022-08-11T08:40:11.953Z,26.30
2022-08-11T08:42:45.402Z,26.40
2022-08-11T08:45:18.753Z,26.30
2022-08-11T08:47:53.038Z,26.30
2022-08-11T08:50:27.696Z,26.50
2022-08-11T08:53:00.012Z,26.40
2022-08-11T08:55:30.800Z,26.70
2022-08-11T08:58:00.909Z,26.50
2022-08-11T09:00:39.846Z,26.60
2022-08-11T09:03:38.091Z,26.70
2022-08-11T09:05:57.631Z,26.50
2022-08-11T09:08:26.531Z,26.70
2022-08-11T09:11:13.857Z,26.70
2022-08-11T09:13:44.960Z,26.90
2022-08-11T09:16:15.881Z,27.00
2022-08-11T09:18:46.613Z,27.10
2022-08-11T09:21:36.879Z,27.00
2022-08-11T09:24:30.993Z,27.20
2022-08-11T09:27:06.187Z,27.20
2022-08-11T09:29:34.882Z,27.30
2022-08-11T09:32:03.617Z,27.20
2022-08-11T09:34:36.848Z,27.20
2022-08-11T09:37:28.497Z,27.30
2022-08-11T09:40:31.373Z,27.40
2022-08-11T09:43:24.212Z,27.50
2022-08-11T09:45:54.187Z,27.30
2022-08-11T09:48:23.777Z,27.50
2022-08-11T09:50:52.866Z,27.60
2022-08-11T09:53:37.156Z,27.50
2022-08-11T09:56:29.517Z,27.60
2022-08-11T09:58:59.637Z,27.60
2022-08-11T10:01:31.613Z,27.70
2022-08-11T10:04:02.828Z,27.60
2022-08-11T10:06:54.101Z,27.80
2022-08-11T10:09:24.295Z,27.90
2022-08-11T10:11:58.752Z,27.60
2022-08-11T10:14:48.752Z,27.50
2022-08-11T10:17:18.659Z,27.50
2022-08-11T10:20:01.993Z,27.50
2022-08-11T10:22:50.966Z,27.60
2022-08-11T10:25:36.969Z,27.40
2022-08-11T10:28:16.780Z,27.10
2022-08-11T10:31:14.273Z,26.80
2022-08-11T10:34:05.292Z,27.00
2022-08-11T10:36:42.772Z,27.30
2022-08-11T10:39:12.442Z,27.70
2022-08-11T10:42:06.536Z,27.90
2022-08-11T10:44:39.764Z,27.90
2022-08-11T10:47:29.594Z,27.70
2022-08-11T10:50:34.071Z,27.90
2022-08-11T10:53:20.181Z,28.00
2022-08-11T10:56:06.351Z,27.90
2022-08-11T10:58:48.861Z,28.10
2022-08-11T11:01:24.159Z,28.10
2022-08-11T11:03:57.967Z,28.20
2022-08-11T11:06:33.867Z,28.10
2022-08-11T11:09:05.443Z,28.00
2022-08-11T11:11:56.037Z,28.20
2022-08-11T11:14:46.324Z,28.50
2022-08-11T11:17:40.074Z,28.50
2022-08-11T11:20:36.224Z,28.40
2022-08-11T11:23:04.912Z,28.20
2022-08-11T11:25:40.285Z,27.90
2022-08-11T11:28:16.793Z,27.90
2022-08-11T11:30:50.765Z,28.10
2022-08-11T11:33:22.855Z,28.30
2022-08-11T11:36:02.105Z,28.20
2022-08-11T11:38:30.975Z,28.20
2022-08-11T11:41:19.508Z,28.40
2022-08-11T11:43:49.615Z,28.20
2022-08-11T11:46:18.455Z,28.40
2022-08-11T11:48:47.145Z,28.50
2022-08-11T11:51:19.504Z,28.60
2022-08-11T11:53:48.765Z,28.80
2022-08-11T11:56:18.118Z,28.80
2022-08-11T11:59:04.670Z,28.60
2022-08-11T12:01:41.264Z,28.50
2022-08-11T12:04:21.106Z,28.60
2022-08-11T12:07:14.995Z,28.70
2022-08-11T12:09:44.755Z,28.80
2022-08-11T12:12:30.386Z,28.70
2022-08-11T12:14:59.325Z,28.50
2022-08-11T12:17:27.836Z,28.50
2022-08-11T12:19:57.376Z,28.50
2022-08-11T12:22:45.365Z,28.60
2022-08-11T12:25:31.216Z,28.50
2022-08-11T12:27:59.935Z,28.50
2022-08-11T12:30:28.633Z,28.50
2022-08-11T12:32:57.386Z,28.50
2022-08-11T12:35:27.025Z,28.70
2022-08-11T12:38:03.665Z,28.90
2022-08-11T12:44:03.316Z,29.10
2022-08-11T12:46:34.216Z,29.00
2022-08-11T12:49:23.117Z,28.90
2022-08-11T12:52:11.080Z,28.90
2022-08-11T12:54:47.148Z,29.00
2022-08-11T12:57:37.422Z,28.80
2022-08-11T13:00:25.332Z,28.90
2022-08-11T13:03:11.362Z,29.00
2022-08-11T13:05:44.492Z,28.90
2022-08-11T13:08:15.651Z,28.90
2022-08-11T13:11:03.661Z,28.90
2022-08-11T13:13:53.917Z,29.00
2022-08-11T13:16:23.902Z,29.20
2022-08-11T13:18:53.658Z,29.00
2022-08-11T13:21:23.489Z,29.20
2022-08-11T13:23:59.471Z,29.20
2022-08-11T13:26:43.450Z,29.40
2022-08-11T13:29:23.197Z,29.30
2022-08-11T13:31:52.453Z,29.00
2022-08-11T13:34:23.209Z,28.80
2022-08-11T13:36:53.481Z,28.90
2022-08-11T13:39:24.003Z,28.90
2022-08-11T13:41:55.441Z,28.90
2022-08-11T13:44:26.008Z,29.10
2022-08-11T13:46:55.945Z,29.30
2022-08-11T13:49:24.896Z,29.30
2022-08-11T13:51:54.261Z,29.40
2022-08-11T13:54:25.785Z,29.30
2022-08-11T13:56:56.537Z,29.30
2022-08-11T13:59:30.071Z,29.50
2022-08-11T14:02:19.526Z,29.60
2022-08-11T14:04:52.496Z,29.70
2022-08-11T14:07:23.879Z,29.70
2022-08-11T14:09:57.711Z,29.60
2022-08-11T14:12:48.234Z,29.40
2022-08-11T14:15:20.218Z,29.30
2022-08-11T14:17:51.874Z,29.30
2022-08-11T14:20:39.601Z,29.20
2022-08-11T14:23:12.309Z,29.30
2022-08-11T14:26:03.290Z,29.40
2022-08-11T14:28:40.264Z,29.30
2022-08-11T14:31:14.662Z,29.30
2022-08-11T14:33:59.833Z,29.40
2022-08-11T14:36:32.967Z,29.30
2022-08-11T14:39:03.581Z,29.20
2022-08-11T14:42:10.115Z,29.40
2022-08-11T14:44:59.228Z,29.40
2022-08-11T14:47:29.562Z,29.20
2022-08-11T14:50:11.145Z,29.20
2022-08-11T14:52:45.655Z,29.20
2022-08-11T14:55:49.944Z,29.40
2022-08-11T14:58:20.119Z,29.40
2022-08-11T15:00:51.858Z,29.50
2022-08-11T15:03:19.749Z,29.30
2022-08-11T15:05:56.522Z,29.30
2022-08-11T15:08:41.680Z,29.40
2022-08-11T15:11:31.610Z,29.30
2022-08-11T15:14:01.441Z,29.40
2022-08-11T15:16:48.563Z,29.50
2022-08-11T15:19:21.611Z,29.50
2022-08-11T15:22:07.587Z,29.50
2022-08-11T15:24:36.853Z,29.40
2022-08-11T15:27:24.392Z,29.40
2022-08-11T15:30:11.006Z,29.50
2022-08-11T15:33:09.947Z,29.40
2022-08-11T15:35:56.882Z,29.30
2022-08-11T15:38:27.910Z,29.20
2022-08-11T15:41:15.181Z,29.10
2022-08-11T15:44:04.541Z,29.20
2022-08-11T15:46:35.220Z,29.20
2022-08-11T15:49:10.961Z,29.20
2022-08-11T15:51:43.000Z,29.20
2022-08-11T15:54:13.212Z,29.10
2022-08-11T15:56:43.650Z,29.10
2022-08-11T15:59:41.534Z,29.10
2022-08-11T16:02:30.532Z,29.10
2022-08-11T16:05:45.246Z,29.10
2022-08-11T16:08:08.660Z,29.10
2022-08-11T16:10:39.829Z,29.10
2022-08-11T16:13:36.350Z,29.10
2022-08-11T16:16:18.980Z,29.10
2022-08-11T16:18:51.772Z,29.10
2022-08-11T16:21:26.249Z,29.00
2022-08-11T16:24:06.741Z,28.90
2022-08-11T16:27:11.775Z,28.90
2022-08-11T16:29:28.360Z,28.90
2022-08-11T16:32:15.637Z,28.80
2022-08-11T16:35:03.045Z,28.90
2022-08-11T16:37:49.815Z,28.80
2022-08-11T16:40:20.930Z,28.80
2022-08-11T16:43:10.616Z,28.70
2022-08-11T16:45:57.553Z,28.70
2022-08-11T16:48:37.158Z,28.60
2022-08-11T16:51:08.570Z,28.60
2022-08-11T16:54:03.382Z,28.70
2022-08-11T16:56:33.520Z,28.60
2022-08-11T16:59:16.288Z,28.60
2022-08-11T17:01:50.132Z,28.60
2022-08-11T17:04:39.452Z,28.60
2022-08-11T17:07:41.672Z,28.50
2022-08-11T17:10:52.621Z,28.60
2022-08-11T17:13:28.920Z,28.60
2022-08-11T17:16:08.352Z,28.50
2022-08-11T17:18:43.869Z,28.50
2022-08-11T17:21:23.460Z,28.50
2022-08-11T17:23:55.255Z,28.50
2022-08-11T17:26:26.821Z,28.40
2022-08-11T17:28:58.730Z,28.40
2022-08-11T17:31:44.248Z,28.30
2022-08-11T17:34:30.240Z,28.20
2022-08-11T17:37:00.243Z,28.10
2022-08-11T17:39:31.639Z,28.00
2022-08-11T17:42:19.232Z,28.00
2022-08-11T17:45:07.262Z,27.90
2022-08-11T17:47:53.170Z,27.80
2022-08-11T17:50:21.961Z,27.80
2022-08-11T17:53:08.964Z,27.80
2022-08-11T17:55:58.095Z,27.70
2022-08-11T17:58:44.413Z,27.60
2022-08-11T18:01:17.319Z,27.60
2022-08-11T18:03:56.247Z,27.50
2022-08-11T18:06:34.265Z,27.50
2022-08-11T18:09:23.521Z,27.40
2022-08-11T18:12:13.005Z,27.30
2022-08-11T18:15:00.772Z,27.10
2022-08-11T18:17:50.253Z,26.90
2022-08-11T18:20:36.311Z,26.80
2022-08-11T18:23:45.604Z,26.70
2022-08-11T18:26:30.693Z,26.80
2022-08-11T18:29:17.227Z,26.70
2022-08-11T18:32:06.184Z,26.60
2022-08-11T18:34:56.131Z,26.50
2022-08-11T18:37:44.130Z,26.40
2022-08-11T18:40:33.580Z,26.30
2022-08-11T18:43:25.021Z,26.30
2022-08-11T18:46:16.191Z,26.20
2022-08-11T18:49:08.722Z,26.10
2022-08-11T18:51:59.490Z,25.90
2022-08-11T18:54:47.075Z,25.90
2022-08-11T18:57:37.591Z,25.80
2022-08-11T19:00:37.657Z,25.80
2022-08-11T19:03:49.301Z,25.70
2022-08-11T19:06:40.081Z,25.50
2022-08-11T19:09:30.493Z,25.50
2022-08-11T19:12:17.820Z,25.50
2022-08-11T19:15:04.850Z,25.50
2022-08-11T19:17:56.041Z,25.40
2022-08-11T19:20:43.371Z,25.50
2022-08-11T19:23:29.681Z,25.30
2022-08-11T19:26:17.822Z,25.20
2022-08-11T19:29:05.731Z,25.10
2022-08-11T19:31:51.911Z,25.00
2022-08-11T19:34:38.262Z,25.00
2022-08-11T19:37:25.893Z,24.90
2022-08-11T19:40:13.776Z,24.80
2022-08-11T19:43:01.774Z,24.70
2022-08-11T19:45:51.618Z,24.70
2022-08-11T19:48:40.236Z,24.70
2022-08-11T19:51:44.433Z,24.60
2022-08-11T19:54:31.281Z,24.50
2022-08-11T19:57:18.321Z,24.50
2022-08-11T20:00:05.854Z,24.50
2022-08-11T20:02:51.771Z,24.40
2022-08-11T20:05:37.957Z,24.30
2022-08-11T20:08:42.457Z,24.20
2022-08-11T20:11:29.962Z,24.20
2022-08-11T20:14:16.528Z,24.20
2022-08-11T20:17:03.933Z,24.00
2022-08-11T20:19:56.024Z,24.00
2022-08-11T20:22:43.305Z,23.90
2022-08-11T20:25:29.186Z,23.90
2022-08-11T20:28:15.155Z,23.80
2022-08-11T20:31:03.093Z,23.80
2022-08-11T20:33:51.244Z,23.70
2022-08-11T20:36:37.025Z,23.60
2022-08-11T20:39:23.076Z,23.50
2022-08-11T20:42:09.834Z,23.60
2022-08-11T20:44:56.073Z,23.80
2022-08-11T20:47:58.869Z,23.80
2022-08-11T20:50:47.754Z,23.80
2022-08-11T20:53:35.886Z,23.80
2022-08-11T20:56:28.556Z,23.70
2022-08-11T20:59:18.241Z,23.50
2022-08-11T21:02:05.400Z,23.40
2022-08-11T21:04:56.224Z,23.40
2022-08-11T21:07:50.292Z,23.30
2022-08-11T21:10:43.983Z,23.30
2022-08-11T21:13:33.437Z,23.30
2022-08-11T21:16:25.261Z,23.20
2022-08-11T21:19:14.192Z,23.20
2022-08-11T21:22:00.899Z,23.20
2022-08-11T21:24:48.852Z,23.10
2022-08-11T21:27:36.303Z,23.00
2022-08-11T21:30:22.274Z,23.00
2022-08-11T21:33:08.560Z,22.90
2022-08-11T21:35:54.542Z,22.90
2022-08-11T21:38:40.114Z,22.90
2022-08-11T21:41:28.993Z,22.80
2022-08-11T21:44:15.833Z,22.70
2022-08-11T21:47:02.141Z,22.70
2022-08-11T21:49:48.763Z,22.60
2022-08-11T21:52:34.645Z,22.60
2022-08-11T21:55:20.364Z,22.60
2022-08-11T21:58:07.961Z,22.50
2022-08-11T22:00:53.921Z,22.50
2022-08-11T22:03:49.789Z,22.40
2022-08-11T22:06:36.272Z,22.40
2022-08-11T22:09:22.092Z,22.40
2022-08-11T22:12:33.451Z,22.30
2022-08-11T22:15:15.042Z,22.30
2022-08-11T22:18:00.762Z,22.30
2022-08-11T22:20:47.173Z,22.30
2022-08-11T22:23:35.826Z,22.20
2022-08-11T22:26:22.618Z,22.10
2022-08-11T22:29:08.451Z,22.10
2022-08-11T22:31:56.675Z,22.00
2022-08-11T22:34:53.165Z,22.00
2022-08-11T22:37:40.721Z,22.00
2022-08-11T22:40:27.422Z,21.90
2022-08-11T22:43:13.113Z,21.80
2022-08-11T22:45:58.932Z,21.80
2022-08-11T22:48:49.351Z,21.90
2022-08-11T22:51:36.565Z,21.80
2022-08-11T22:54:23.474Z,21.80
2022-08-11T22:57:09.873Z,21.70
2022-08-11T22:59:56.223Z,21.60
2022-08-11T23:02:41.954Z,21.50
2022-08-11T23:05:29.472Z,21.60
2022-08-11T23:08:15.632Z,21.50
2022-08-11T23:11:01.363Z,21.40
2022-08-11T23:13:47.881Z,21.50
2022-08-11T23:16:35.152Z,21.40
2022-08-11T23:19:59.994Z,21.40
2022-08-11T23:22:35.933Z,21.30
2022-08-11T23:25:33.663Z,21.20
2022-08-11T23:28:20.305Z,21.10
2022-08-11T23:31:06.553Z,21.10
2022-08-11T23:33:52.898Z,21.00
2022-08-11T23:36:47.084Z,21.00
2022-08-11T23:39:35.704Z,21.00
2022-08-11T23:42:21.851Z,21.00
2022-08-11T23:45:10.323Z,21.00
2022-08-11T23:47:57.432Z,20.90
2022-08-11T23:50:43.296Z,20.90
2022-08-11T23:53:29.306Z,20.90
2022-08-11T23:56:16.592Z,20.70
2022-08-11T23:59:02.632Z,20.70
